Deux-Montagnes, Canada
Current Conditions -  °F | °C
As of 11:00 PM on Sunday 25 Jan 2015 (Local Time) from CYUL Reporting Station
Clear Clear  
Wind Chill: -8°   Ceiling: Unl
Heat Index:   Visibility: 15mi
Dew Point: -9°   Wind: 6mph
Humidity: 56%   Direction: 290°WNW
Pressure: 30.14"   Gusts: NA
Location:  45.53°N, 73.88°W
Report Text: CYUL 260400Z 29005KT 15SM SKC M16/M23 A3014 RMK SLP208
Loading
Personal Weather Stations






























Interactive Weather Map New forecast layout! Learn more

10-Day Weather Forecast

Advertisements
Track Severe Weather on mobile